sensor_id;sensor_type;location;lat;lon;timestamp;P1;durP1;ratioP1;P2;durP2;ratioP2
10122;SDS011;5101;49.038;8.710;2024-01-30T00:02:23;15.27;;;11.20;;
10122;SDS011;5101;49.038;8.710;2024-01-30T00:04:48;14.03;;;11.03;;
10122;SDS011;5101;49.038;8.710;2024-01-30T00:07:14;14.97;;;10.97;;
10122;SDS011;5101;49.038;8.710;2024-01-30T00:09:40;14.97;;;10.67;;
10122;SDS011;5101;49.038;8.710;2024-01-30T00:12:06;17.53;;;11.37;;
10122;SDS011;5101;49.038;8.710;2024-01-30T00:14:31;15.33;;;10.53;;
10122;SDS011;5101;49.038;8.710;2024-01-30T00:16:57;13.13;;;10.30;;
10122;SDS011;5101;49.038;8.710;2024-01-30T00:19:22;14.33;;;10.47;;
10122;SDS011;5101;49.038;8.710;2024-01-30T00:21:48;16.23;;;10.73;;
10122;SDS011;5101;49.038;8.710;2024-01-30T00:24:14;13.07;;;10.33;;
10122;SDS011;5101;49.038;8.710;2024-01-30T00:26:39;15.33;;;10.90;;
10122;SDS011;5101;49.038;8.710;2024-01-30T00:29:05;14.50;;;10.23;;
10122;SDS011;5101;49.038;8.710;2024-01-30T00:31:31;13.00;;;10.07;;
10122;SDS011;5101;49.038;8.710;2024-01-30T00:33:56;15.67;;;10.47;;
10122;SDS011;5101;49.038;8.710;2024-01-30T00:36:22;13.43;;;10.07;;
10122;SDS011;5101;49.038;8.710;2024-01-30T00:38:47;13.70;;;9.73;;
10122;SDS011;5101;49.038;8.710;2024-01-30T00:41:13;14.30;;;9.90;;
10122;SDS011;5101;49.038;8.710;2024-01-30T00:43:38;13.27;;;10.07;;
10122;SDS011;5101;49.038;8.710;2024-01-30T00:46:04;14.60;;;9.97;;
10122;SDS011;5101;49.038;8.710;2024-01-30T00:48:29;14.73;;;9.77;;
10122;SDS011;5101;49.038;8.710;2024-01-30T00:50:55;12.73;;;9.00;;
10122;SDS011;5101;49.038;8.710;2024-01-30T00:53:20;12.50;;;9.07;;
10122;SDS011;5101;49.038;8.710;2024-01-30T00:55:46;13.73;;;9.17;;
10122;SDS011;5101;49.038;8.710;2024-01-30T00:58:12;12.93;;;8.80;;
10122;SDS011;5101;49.038;8.710;2024-01-30T01:00:37;15.43;;;10.07;;
10122;SDS011;5101;49.038;8.710;2024-01-30T01:03:03;13.10;;;11.70;;
10122;SDS011;5101;49.038;8.710;2024-01-30T01:05:29;13.80;;;10.53;;
10122;SDS011;5101;49.038;8.710;2024-01-30T01:07:55;16.47;;;11.20;;
10122;SDS011;5101;49.038;8.710;2024-01-30T01:10:20;13.57;;;10.27;;
10122;SDS011;5101;49.038;8.710;2024-01-30T01:12:46;13.27;;;10.00;;
10122;SDS011;5101;49.038;8.710;2024-01-30T01:15:12;15.35;;;12.90;;
10122;SDS011;5101;49.038;8.710;2024-01-30T01:17:38;13.77;;;11.17;;
10122;SDS011;5101;49.038;8.710;2024-01-30T01:20:04;13.63;;;10.40;;
10122;SDS011;5101;49.038;8.710;2024-01-30T01:22:31;11.70;;;9.77;;
10122;SDS011;5101;49.038;8.710;2024-01-30T01:24:57;14.73;;;9.90;;
10122;SDS011;5101;49.038;8.710;2024-01-30T01:27:23;15.10;;;10.40;;
10122;SDS011;5101;49.038;8.710;2024-01-30T01:29:49;13.40;;;10.30;;
10122;SDS011;5101;49.038;8.710;2024-01-30T01:32:15;13.97;;;10.13;;
10122;SDS011;5101;49.038;8.710;2024-01-30T01:34:41;12.87;;;10.00;;
10122;SDS011;5101;49.038;8.710;2024-01-30T01:37:06;12.87;;;9.27;;
10122;SDS011;5101;49.038;8.710;2024-01-30T01:39:32;14.37;;;9.87;;
10122;SDS011;5101;49.038;8.710;2024-01-30T01:41:58;14.17;;;10.00;;
10122;SDS011;5101;49.038;8.710;2024-01-30T01:44:23;15.17;;;9.63;;
10122;SDS011;5101;49.038;8.710;2024-01-30T01:46:48;12.63;;;9.27;;
10122;SDS011;5101;49.038;8.710;2024-01-30T01:49:15;13.73;;;9.70;;
10122;SDS011;5101;49.038;8.710;2024-01-30T01:51:41;13.00;;;9.50;;
10122;SDS011;5101;49.038;8.710;2024-01-30T01:54:09;11.97;;;9.43;;
10122;SDS011;5101;49.038;8.710;2024-01-30T01:56:36;10.17;;;8.37;;
10122;SDS011;5101;49.038;8.710;2024-01-30T01:59:07;12.97;;;9.23;;
10122;SDS011;5101;49.038;8.710;2024-01-30T02:01:33;12.13;;;8.57;;
10122;SDS011;5101;49.038;8.710;2024-01-30T02:04:00;18.87;;;9.30;;
10122;SDS011;5101;49.038;8.710;2024-01-30T02:06:26;12.33;;;8.50;;
10122;SDS011;5101;49.038;8.710;2024-01-30T02:08:52;10.90;;;7.63;;
10122;SDS011;5101;49.038;8.710;2024-01-30T02:11:18;10.57;;;7.80;;
10122;SDS011;5101;49.038;8.710;2024-01-30T02:13:45;11.70;;;7.90;;
10122;SDS011;5101;49.038;8.710;2024-01-30T02:16:10;12.90;;;8.43;;
10122;SDS011;5101;49.038;8.710;2024-01-30T02:18:36;13.50;;;8.93;;
10122;SDS011;5101;49.038;8.710;2024-01-30T02:21:06;12.70;;;7.97;;
10122;SDS011;5101;49.038;8.710;2024-01-30T02:23:32;14.00;;;7.00;;
10122;SDS011;5101;49.038;8.710;2024-01-30T02:25:59;10.60;;;7.40;;
10122;SDS011;5101;49.038;8.710;2024-01-30T02:28:25;9.87;;;6.70;;
10122;SDS011;5101;49.038;8.710;2024-01-30T02:30:51;10.10;;;7.17;;
10122;SDS011;5101;49.038;8.710;2024-01-30T02:33:16;13.23;;;7.47;;
10122;SDS011;5101;49.038;8.710;2024-01-30T02:35:42;10.90;;;7.27;;
10122;SDS011;5101;49.038;8.710;2024-01-30T02:38:07;9.57;;;6.47;;
10122;SDS011;5101;49.038;8.710;2024-01-30T02:40:33;8.37;;;6.70;;
10122;SDS011;5101;49.038;8.710;2024-01-30T02:42:59;11.53;;;7.07;;
10122;SDS011;5101;49.038;8.710;2024-01-30T02:45:26;9.63;;;6.87;;
10122;SDS011;5101;49.038;8.710;2024-01-30T02:47:51;13.57;;;7.63;;
10122;SDS011;5101;49.038;8.710;2024-01-30T02:50:17;10.27;;;6.13;;
10122;SDS011;5101;49.038;8.710;2024-01-30T02:52:43;10.30;;;7.07;;
10122;SDS011;5101;49.038;8.710;2024-01-30T02:55:11;9.83;;;7.23;;
10122;SDS011;5101;49.038;8.710;2024-01-30T02:57:40;11.90;;;7.40;;
10122;SDS011;5101;49.038;8.710;2024-01-30T03:00:06;10.13;;;7.40;;
10122;SDS011;5101;49.038;8.710;2024-01-30T03:02:34;9.20;;;6.90;;
10122;SDS011;5101;49.038;8.710;2024-01-30T03:05:00;10.90;;;8.03;;
10122;SDS011;5101;49.038;8.710;2024-01-30T03:07:26;10.00;;;7.10;;
10122;SDS011;5101;49.038;8.710;2024-01-30T03:09:51;10.07;;;7.17;;
10122;SDS011;5101;49.038;8.710;2024-01-30T03:12:17;9.47;;;7.20;;
10122;SDS011;5101;49.038;8.710;2024-01-30T03:14:43;12.20;;;8.17;;
10122;SDS011;5101;49.038;8.710;2024-01-30T03:17:08;9.80;;;7.47;;
10122;SDS011;5101;49.038;8.710;2024-01-30T03:19:34;11.33;;;7.17;;
10122;SDS011;5101;49.038;8.710;2024-01-30T03:21:59;10.20;;;7.90;;
10122;SDS011;5101;49.038;8.710;2024-01-30T03:24:25;10.47;;;7.13;;
10122;SDS011;5101;49.038;8.710;2024-01-30T03:26:50;10.37;;;7.83;;
10122;SDS011;5101;49.038;8.710;2024-01-30T03:29:16;11.47;;;6.80;;
10122;SDS011;5101;49.038;8.710;2024-01-30T03:31:41;11.82;;;7.38;;
10122;SDS011;5101;49.038;8.710;2024-01-30T03:34:07;8.07;;;6.10;;
10122;SDS011;5101;49.038;8.710;2024-01-30T03:36:32;8.73;;;6.37;;
10122;SDS011;5101;49.038;8.710;2024-01-30T03:38:59;11.37;;;6.33;;
10122;SDS011;5101;49.038;8.710;2024-01-30T03:41:25;8.63;;;6.57;;
10122;SDS011;5101;49.038;8.710;2024-01-30T03:43:50;7.60;;;6.30;;
10122;SDS011;5101;49.038;8.710;2024-01-30T03:46:16;10.07;;;6.77;;
10122;SDS011;5101;49.038;8.710;2024-01-30T03:48:42;8.13;;;6.33;;
10122;SDS011;5101;49.038;8.710;2024-01-30T03:51:07;9.70;;;7.27;;
10122;SDS011;5101;49.038;8.710;2024-01-30T03:53:34;8.23;;;6.70;;
10122;SDS011;5101;49.038;8.710;2024-01-30T03:56:00;10.23;;;6.43;;
10122;SDS011;5101;49.038;8.710;2024-01-30T03:58:25;8.77;;;6.37;;
10122;SDS011;5101;49.038;8.710;2024-01-30T04:00:51;10.63;;;6.60;;
10122;SDS011;5101;49.038;8.710;2024-01-30T04:03:16;7.73;;;6.17;;
10122;SDS011;5101;49.038;8.710;2024-01-30T04:05:42;8.13;;;6.53;;
10122;SDS011;5101;49.038;8.710;2024-01-30T04:08:08;6.33;;;5.57;;
10122;SDS011;5101;49.038;8.710;2024-01-30T04:10:33;8.37;;;6.07;;
10122;SDS011;5101;49.038;8.710;2024-01-30T04:12:59;8.93;;;6.23;;
10122;SDS011;5101;49.038;8.710;2024-01-30T04:15:25;10.47;;;6.57;;
10122;SDS011;5101;49.038;8.710;2024-01-30T04:17:50;7.03;;;6.33;;
10122;SDS011;5101;49.038;8.710;2024-01-30T04:20:16;9.87;;;6.20;;
10122;SDS011;5101;49.038;8.710;2024-01-30T04:22:45;6.90;;;6.07;;
10122;SDS011;5101;49.038;8.710;2024-01-30T04:25:14;9.63;;;7.00;;
10122;SDS011;5101;49.038;8.710;2024-01-30T04:27:39;13.53;;;7.03;;
10122;SDS011;5101;49.038;8.710;2024-01-30T04:30:05;9.83;;;5.93;;
10122;SDS011;5101;49.038;8.710;2024-01-30T04:32:31;9.17;;;6.40;;
10122;SDS011;5101;49.038;8.710;2024-01-30T04:34:57;9.43;;;6.60;;
10122;SDS011;5101;49.038;8.710;2024-01-30T04:37:23;11.57;;;6.60;;
10122;SDS011;5101;49.038;8.710;2024-01-30T04:39:48;8.70;;;6.83;;
10122;SDS011;5101;49.038;8.710;2024-01-30T04:42:14;8.10;;;5.93;;
10122;SDS011;5101;49.038;8.710;2024-01-30T04:44:39;8.63;;;6.87;;
10122;SDS011;5101;49.038;8.710;2024-01-30T04:47:05;9.37;;;6.20;;
10122;SDS011;5101;49.038;8.710;2024-01-30T04:49:33;9.63;;;6.57;;
10122;SDS011;5101;49.038;8.710;2024-01-30T04:51:59;9.67;;;6.90;;
10122;SDS011;5101;49.038;8.710;2024-01-30T04:54:25;10.80;;;7.10;;
10122;SDS011;5101;49.038;8.710;2024-01-30T04:56:50;8.33;;;6.70;;
10122;SDS011;5101;49.038;8.710;2024-01-30T04:59:16;8.40;;;6.93;;
10122;SDS011;5101;49.038;8.710;2024-01-30T05:01:41;8.17;;;6.73;;
10122;SDS011;5101;49.038;8.710;2024-01-30T05:04:07;9.30;;;6.57;;
10122;SDS011;5101;49.038;8.710;2024-01-30T05:06:34;11.10;;;6.97;;
10122;SDS011;5101;49.038;8.710;2024-01-30T05:09:00;10.17;;;7.50;;
10122;SDS011;5101;49.038;8.710;2024-01-30T05:11:25;12.40;;;8.70;;
10122;SDS011;5101;49.038;8.710;2024-01-30T05:13:51;13.97;;;9.40;;
10122;SDS011;5101;49.038;8.710;2024-01-30T05:16:16;10.83;;;8.10;;
10122;SDS011;5101;49.038;8.710;2024-01-30T05:18:42;11.53;;;8.07;;
10122;SDS011;5101;49.038;8.710;2024-01-30T05:21:08;12.67;;;9.57;;
10122;SDS011;5101;49.038;8.710;2024-01-30T05:23:34;14.40;;;9.60;;
10122;SDS011;5101;49.038;8.710;2024-01-30T05:25:59;19.53;;;10.70;;
10122;SDS011;5101;49.038;8.710;2024-01-30T05:28:26;13.17;;;9.50;;
10122;SDS011;5101;49.038;8.710;2024-01-30T05:30:51;15.10;;;10.63;;
10122;SDS011;5101;49.038;8.710;2024-01-30T05:33:17;14.33;;;10.67;;
10122;SDS011;5101;49.038;8.710;2024-01-30T05:35:42;14.10;;;10.20;;
10122;SDS011;5101;49.038;8.710;2024-01-30T05:38:08;15.63;;;10.63;;
10122;SDS011;5101;49.038;8.710;2024-01-30T05:40:33;18.23;;;11.90;;
10122;SDS011;5101;49.038;8.710;2024-01-30T05:42:59;19.37;;;11.40;;
10122;SDS011;5101;49.038;8.710;2024-01-30T05:45:26;15.27;;;10.80;;
10122;SDS011;5101;49.038;8.710;2024-01-30T05:47:52;12.80;;;9.47;;
10122;SDS011;5101;49.038;8.710;2024-01-30T05:50:17;12.30;;;9.57;;
10122;SDS011;5101;49.038;8.710;2024-01-30T05:52:43;15.80;;;12.23;;
10122;SDS011;5101;49.038;8.710;2024-01-30T05:55:09;21.67;;;13.83;;
10122;SDS011;5101;49.038;8.710;2024-01-30T05:57:36;17.20;;;10.37;;
10122;SDS011;5101;49.038;8.710;2024-01-30T06:00:02;16.47;;;11.70;;
10122;SDS011;5101;49.038;8.710;2024-01-30T06:02:29;19.87;;;11.27;;
10122;SDS011;5101;49.038;8.710;2024-01-30T06:04:54;13.43;;;9.03;;
10122;SDS011;5101;49.038;8.710;2024-01-30T06:07:19;12.90;;;9.90;;
10122;SDS011;5101;49.038;8.710;2024-01-30T06:09:45;15.60;;;9.83;;
10122;SDS011;5101;49.038;8.710;2024-01-30T06:12:11;15.27;;;9.27;;
10122;SDS011;5101;49.038;8.710;2024-01-30T06:14:37;17.57;;;10.93;;
10122;SDS011;5101;49.038;8.710;2024-01-30T06:17:03;12.70;;;9.83;;
10122;SDS011;5101;49.038;8.710;2024-01-30T06:19:28;13.83;;;9.07;;
10122;SDS011;5101;49.038;8.710;2024-01-30T06:21:54;13.97;;;9.07;;
10122;SDS011;5101;49.038;8.710;2024-01-30T06:24:19;13.63;;;9.70;;
10122;SDS011;5101;49.038;8.710;2024-01-30T06:26:44;14.27;;;10.13;;
10122;SDS011;5101;49.038;8.710;2024-01-30T06:29:10;15.20;;;10.50;;
10122;SDS011;5101;49.038;8.710;2024-01-30T06:31:39;13.97;;;9.97;;
10122;SDS011;5101;49.038;8.710;2024-01-30T06:34:06;18.80;;;11.07;;
10122;SDS011;5101;49.038;8.710;2024-01-30T06:36:32;15.20;;;11.10;;
10122;SDS011;5101;49.038;8.710;2024-01-30T06:38:57;16.30;;;10.63;;
10122;SDS011;5101;49.038;8.710;2024-01-30T06:41:23;16.93;;;11.13;;
10122;SDS011;5101;49.038;8.710;2024-01-30T06:43:49;15.47;;;10.53;;
10122;SDS011;5101;49.038;8.710;2024-01-30T06:46:15;16.60;;;11.17;;
10122;SDS011;5101;49.038;8.710;2024-01-30T06:48:40;14.83;;;10.30;;
10122;SDS011;5101;49.038;8.710;2024-01-30T06:51:06;17.30;;;10.53;;
10122;SDS011;5101;49.038;8.710;2024-01-30T06:53:32;15.17;;;10.83;;
10122;SDS011;5101;49.038;8.710;2024-01-30T06:55:57;15.60;;;10.60;;
10122;SDS011;5101;49.038;8.710;2024-01-30T06:58:22;32.33;;;19.27;;
10122;SDS011;5101;49.038;8.710;2024-01-30T07:00:48;20.07;;;12.30;;
10122;SDS011;5101;49.038;8.710;2024-01-30T07:03:13;29.00;;;18.17;;
10122;SDS011;5101;49.038;8.710;2024-01-30T07:05:39;18.30;;;14.53;;
10122;SDS011;5101;49.038;8.710;2024-01-30T07:08:05;17.00;;;11.57;;
10122;SDS011;5101;49.038;8.710;2024-01-30T07:10:30;12.23;;;8.83;;
10122;SDS011;5101;49.038;8.710;2024-01-30T07:12:56;16.23;;;9.60;;
10122;SDS011;5101;49.038;8.710;2024-01-30T07:15:22;13.07;;;8.37;;
10122;SDS011;5101;49.038;8.710;2024-01-30T07:17:47;10.47;;;8.23;;
10122;SDS011;5101;49.038;8.710;2024-01-30T07:20:13;11.27;;;8.03;;
10122;SDS011;5101;49.038;8.710;2024-01-30T07:22:38;12.17;;;7.70;;
10122;SDS011;5101;49.038;8.710;2024-01-30T07:25:04;11.73;;;7.70;;
10122;SDS011;5101;49.038;8.710;2024-01-30T07:27:30;10.53;;;8.13;;
10122;SDS011;5101;49.038;8.710;2024-01-30T07:29:56;18.70;;;9.00;;
10122;SDS011;5101;49.038;8.710;2024-01-30T07:32:21;15.97;;;9.07;;
10122;SDS011;5101;49.038;8.710;2024-01-30T07:34:47;10.70;;;8.33;;
10122;SDS011;5101;49.038;8.710;2024-01-30T07:37:12;18.10;;;9.40;;
10122;SDS011;5101;49.038;8.710;2024-01-30T07:39:40;11.80;;;8.37;;
10122;SDS011;5101;49.038;8.710;2024-01-30T07:42:06;9.57;;;8.30;;
10122;SDS011;5101;49.038;8.710;2024-01-30T07:44:31;10.90;;;8.70;;
10122;SDS011;5101;49.038;8.710;2024-01-30T07:46:57;14.30;;;9.97;;
10122;SDS011;5101;49.038;8.710;2024-01-30T07:49:22;15.30;;;9.93;;
10122;SDS011;5101;49.038;8.710;2024-01-30T07:51:48;14.93;;;10.30;;
10122;SDS011;5101;49.038;8.710;2024-01-30T07:54:13;11.90;;;9.43;;
10122;SDS011;5101;49.038;8.710;2024-01-30T07:56:39;13.93;;;10.77;;
10122;SDS011;5101;49.038;8.710;2024-01-30T07:59:04;15.33;;;9.67;;
10122;SDS011;5101;49.038;8.710;2024-01-30T08:01:30;14.13;;;9.27;;
10122;SDS011;5101;49.038;8.710;2024-01-30T08:03:55;14.43;;;8.43;;
10122;SDS011;5101;49.038;8.710;2024-01-30T08:06:20;16.53;;;9.83;;
10122;SDS011;5101;49.038;8.710;2024-01-30T08:08:46;12.33;;;8.40;;
10122;SDS011;5101;49.038;8.710;2024-01-30T08:11:12;14.67;;;9.53;;
10122;SDS011;5101;49.038;8.710;2024-01-30T08:13:37;14.10;;;9.73;;
10122;SDS011;5101;49.038;8.710;2024-01-30T08:16:03;13.70;;;10.37;;
10122;SDS011;5101;49.038;8.710;2024-01-30T08:18:29;13.03;;;9.13;;
10122;SDS011;5101;49.038;8.710;2024-01-30T08:20:54;11.93;;;8.93;;
10122;SDS011;5101;49.038;8.710;2024-01-30T08:23:20;10.20;;;7.93;;
10122;SDS011;5101;49.038;8.710;2024-01-30T08:25:45;8.83;;;7.60;;
10122;SDS011;5101;49.038;8.710;2024-01-30T08:28:11;11.57;;;9.07;;
10122;SDS011;5101;49.038;8.710;2024-01-30T08:30:36;11.07;;;8.30;;
10122;SDS011;5101;49.038;8.710;2024-01-30T08:33:04;13.33;;;8.27;;
10122;SDS011;5101;49.038;8.710;2024-01-30T08:35:29;13.60;;;8.70;;
10122;SDS011;5101;49.038;8.710;2024-01-30T08:37:58;14.33;;;9.10;;
10122;SDS011;5101;49.038;8.710;2024-01-30T08:40:24;11.77;;;8.70;;
10122;SDS011;5101;49.038;8.710;2024-01-30T08:42:49;11.07;;;7.87;;
10122;SDS011;5101;49.038;8.710;2024-01-30T08:45:15;9.90;;;7.83;;
10122;SDS011;5101;49.038;8.710;2024-01-30T08:47:40;12.97;;;8.47;;
10122;SDS011;5101;49.038;8.710;2024-01-30T08:50:06;15.87;;;8.43;;
10122;SDS011;5101;49.038;8.710;2024-01-30T08:52:32;12.60;;;8.20;;
10122;SDS011;5101;49.038;8.710;2024-01-30T08:54:59;14.50;;;8.50;;
10122;SDS011;5101;49.038;8.710;2024-01-30T08:57:24;12.60;;;8.20;;
10122;SDS011;5101;49.038;8.710;2024-01-30T08:59:53;11.43;;;8.37;;
10122;SDS011;5101;49.038;8.710;2024-01-30T09:02:19;14.33;;;8.73;;
10122;SDS011;5101;49.038;8.710;2024-01-30T09:04:45;10.43;;;8.13;;
10122;SDS011;5101;49.038;8.710;2024-01-30T09:07:11;11.30;;;7.73;;
10122;SDS011;5101;49.038;8.710;2024-01-30T09:09:38;9.47;;;7.83;;
10122;SDS011;5101;49.038;8.710;2024-01-30T09:12:07;11.50;;;8.70;;
10122;SDS011;5101;49.038;8.710;2024-01-30T09:14:34;16.63;;;7.77;;
10122;SDS011;5101;49.038;8.710;2024-01-30T09:17:05;11.20;;;7.87;;
10122;SDS011;5101;49.038;8.710;2024-01-30T09:19:30;12.77;;;7.83;;
10122;SDS011;5101;49.038;8.710;2024-01-30T09:21:56;10.60;;;7.17;;
10122;SDS011;5101;49.038;8.710;2024-01-30T09:24:22;9.70;;;7.40;;
10122;SDS011;5101;49.038;8.710;2024-01-30T09:26:47;10.73;;;7.90;;
10122;SDS011;5101;49.038;8.710;2024-01-30T09:29:13;10.07;;;7.27;;
10122;SDS011;5101;49.038;8.710;2024-01-30T09:31:38;11.50;;;8.50;;
10122;SDS011;5101;49.038;8.710;2024-01-30T09:34:04;10.93;;;8.23;;
10122;SDS011;5101;49.038;8.710;2024-01-30T09:36:29;8.73;;;7.10;;
10122;SDS011;5101;49.038;8.710;2024-01-30T09:38:55;9.90;;;7.97;;
10122;SDS011;5101;49.038;8.710;2024-01-30T09:41:20;9.20;;;8.20;;
10122;SDS011;5101;49.038;8.710;2024-01-30T09:43:49;10.15;;;8.10;;
10122;SDS011;5101;49.038;8.710;2024-01-30T09:46:16;10.83;;;7.50;;
10122;SDS011;5101;49.038;8.710;2024-01-30T09:48:48;11.63;;;8.23;;
10122;SDS011;5101;49.038;8.710;2024-01-30T09:51:14;11.13;;;7.03;;
10122;SDS011;5101;49.038;8.710;2024-01-30T09:53:41;14.48;;;6.55;;
10122;SDS011;5101;49.038;8.710;2024-01-30T09:56:08;12.30;;;9.55;;
10122;SDS011;5101;49.038;8.710;2024-01-30T09:58:33;13.87;;;8.27;;
10122;SDS011;5101;49.038;8.710;2024-01-30T10:00:59;13.37;;;8.83;;
10122;SDS011;5101;49.038;8.710;2024-01-30T10:03:25;12.80;;;8.73;;
10122;SDS011;5101;49.038;8.710;2024-01-30T10:05:51;12.40;;;7.43;;
10122;SDS011;5101;49.038;8.710;2024-01-30T10:08:20;11.23;;;8.70;;
10122;SDS011;5101;49.038;8.710;2024-01-30T10:10:49;11.40;;;8.47;;
10122;SDS011;5101;49.038;8.710;2024-01-30T10:13:15;9.15;;;7.15;;
10122;SDS011;5101;49.038;8.710;2024-01-30T10:15:41;10.60;;;6.45;;
10122;SDS011;5101;49.038;8.710;2024-01-30T10:18:08;12.60;;;6.60;;
10122;SDS011;5101;49.038;8.710;2024-01-30T10:20:35;8.40;;;6.30;;
10122;SDS011;5101;49.038;8.710;2024-01-30T10:23:00;10.83;;;6.47;;
10122;SDS011;5101;49.038;8.710;2024-01-30T10:25:26;9.65;;;6.63;;
10122;SDS011;5101;49.038;8.710;2024-01-30T10:27:52;7.22;;;6.40;;
10122;SDS011;5101;49.038;8.710;2024-01-30T10:30:20;7.82;;;5.95;;
10122;SDS011;5101;49.038;8.710;2024-01-30T10:32:46;8.27;;;6.32;;
10122;SDS011;5101;49.038;8.710;2024-01-30T10:35:11;7.60;;;6.75;;
10122;SDS011;5101;49.038;8.710;2024-01-30T10:37:37;10.65;;;6.90;;
10122;SDS011;5101;49.038;8.710;2024-01-30T10:40:03;5.47;;;4.95;;
10122;SDS011;5101;49.038;8.710;2024-01-30T10:42:32;9.80;;;6.53;;
10122;SDS011;5101;49.038;8.710;2024-01-30T10:47:33;12.02;;;9.40;;
10122;SDS011;5101;49.038;8.710;2024-01-30T10:50:01;9.35;;;6.90;;
10122;SDS011;5101;49.038;8.710;2024-01-30T10:52:28;8.30;;;5.93;;
10122;SDS011;5101;49.038;8.710;2024-01-30T10:54:55;10.90;;;6.22;;
10122;SDS011;5101;49.038;8.710;2024-01-30T10:57:24;10.52;;;5.90;;
10122;SDS011;5101;49.038;8.710;2024-01-30T10:59:53;8.75;;;6.38;;
10122;SDS011;5101;49.038;8.710;2024-01-30T11:02:22;9.68;;;6.70;;
10122;SDS011;5101;49.038;8.710;2024-01-30T11:04:49;8.82;;;6.43;;
10122;SDS011;5101;49.038;8.710;2024-01-30T11:09:47;9.85;;;8.15;;
10122;SDS011;5101;49.038;8.710;2024-01-30T11:12:14;8.60;;;7.68;;
10122;SDS011;5101;49.038;8.710;2024-01-30T11:14:40;12.02;;;7.53;;
10122;SDS011;5101;49.038;8.710;2024-01-30T11:17:05;11.45;;;7.38;;
10122;SDS011;5101;49.038;8.710;2024-01-30T11:19:31;9.68;;;7.10;;
10122;SDS011;5101;49.038;8.710;2024-01-30T11:21:58;9.90;;;7.75;;
10122;SDS011;5101;49.038;8.710;2024-01-30T11:24:25;11.80;;;7.10;;
10122;SDS011;5101;49.038;8.710;2024-01-30T11:26:57;10.15;;;7.07;;
10122;SDS011;5101;49.038;8.710;2024-01-30T11:29:24;11.27;;;6.97;;
10122;SDS011;5101;49.038;8.710;2024-01-30T11:31:57;21.38;;;11.10;;
10122;SDS011;5101;49.038;8.710;2024-01-30T11:34:23;26.95;;;12.40;;
10122;SDS011;5101;49.038;8.710;2024-01-30T11:36:52;26.52;;;11.32;;
10122;SDS011;5101;49.038;8.710;2024-01-30T11:39:25;57.63;;;19.45;;
10122;SDS011;5101;49.038;8.710;2024-01-30T11:41:51;21.73;;;10.15;;
10122;SDS011;5101;49.038;8.710;2024-01-30T11:44:18;11.70;;;6.95;;
10122;SDS011;5101;49.038;8.710;2024-01-30T11:46:50;11.05;;;7.93;;
10122;SDS011;5101;49.038;8.710;2024-01-30T11:49:17;12.48;;;7.93;;
10122;SDS011;5101;49.038;8.710;2024-01-30T11:51:43;10.80;;;6.22;;
10122;SDS011;5101;49.038;8.710;2024-01-30T11:54:13;9.13;;;7.30;;
10122;SDS011;5101;49.038;8.710;2024-01-30T11:56:42;8.77;;;6.70;;
10122;SDS011;5101;49.038;8.710;2024-01-30T11:59:08;10.32;;;6.32;;
10122;SDS011;5101;49.038;8.710;2024-01-30T12:01:34;12.10;;;6.72;;
10122;SDS011;5101;49.038;8.710;2024-01-30T12:04:00;14.90;;;6.85;;
10122;SDS011;5101;49.038;8.710;2024-01-30T12:06:25;9.40;;;5.45;;
10122;SDS011;5101;49.038;8.710;2024-01-30T12:08:58;8.13;;;6.05;;
10122;SDS011;5101;49.038;8.710;2024-01-30T12:11:25;13.48;;;6.68;;
10122;SDS011;5101;49.038;8.710;2024-01-30T12:13:51;9.45;;;5.97;;
10122;SDS011;5101;49.038;8.710;2024-01-30T12:16:17;12.18;;;6.38;;
10122;SDS011;5101;49.038;8.710;2024-01-30T12:18:43;9.00;;;6.30;;
10122;SDS011;5101;49.038;8.710;2024-01-30T12:21:09;8.25;;;6.65;;
10122;SDS011;5101;49.038;8.710;2024-01-30T12:23:35;8.70;;;6.57;;
10122;SDS011;5101;49.038;8.710;2024-01-30T12:26:01;8.52;;;6.93;;
10122;SDS011;5101;49.038;8.710;2024-01-30T12:28:28;11.10;;;6.80;;
10122;SDS011;5101;49.038;8.710;2024-01-30T12:31:00;17.35;;;7.15;;
10122;SDS011;5101;49.038;8.710;2024-01-30T12:33:27;15.23;;;7.50;;
10122;SDS011;5101;49.038;8.710;2024-01-30T12:35:53;7.90;;;6.78;;
10122;SDS011;5101;49.038;8.710;2024-01-30T12:38:19;12.65;;;7.03;;
10122;SDS011;5101;49.038;8.710;2024-01-30T12:40:45;10.20;;;6.65;;
10122;SDS011;5101;49.038;8.710;2024-01-30T12:43:11;10.95;;;6.25;;
10122;SDS011;5101;49.038;8.710;2024-01-30T12:45:39;10.82;;;6.60;;
10122;SDS011;5101;49.038;8.710;2024-01-30T12:48:06;12.13;;;7.53;;
10122;SDS011;5101;49.038;8.710;2024-01-30T12:50:31;10.45;;;7.32;;
10122;SDS011;5101;49.038;8.710;2024-01-30T12:52:57;10.07;;;6.70;;
10122;SDS011;5101;49.038;8.710;2024-01-30T12:55:23;12.65;;;5.90;;
10122;SDS011;5101;49.038;8.710;2024-01-30T12:57:49;9.95;;;6.20;;
10122;SDS011;5101;49.038;8.710;2024-01-30T13:00:15;15.27;;;5.85;;
10122;SDS011;5101;49.038;8.710;2024-01-30T13:02:42;7.88;;;5.18;;
10122;SDS011;5101;49.038;8.710;2024-01-30T13:05:09;8.32;;;5.18;;
10122;SDS011;5101;49.038;8.710;2024-01-30T13:07:35;11.20;;;5.53;;
10122;SDS011;5101;49.038;8.710;2024-01-30T13:10:00;6.78;;;4.93;;
10122;SDS011;5101;49.038;8.710;2024-01-30T13:12:28;5.68;;;5.10;;
10122;SDS011;5101;49.038;8.710;2024-01-30T13:14:55;5.70;;;4.68;;
10122;SDS011;5101;49.038;8.710;2024-01-30T13:17:20;10.15;;;5.53;;
10122;SDS011;5101;49.038;8.710;2024-01-30T13:19:46;7.72;;;5.22;;
10122;SDS011;5101;49.038;8.710;2024-01-30T13:22:13;6.88;;;5.05;;
10122;SDS011;5101;49.038;8.710;2024-01-30T13:24:39;10.52;;;4.65;;
10122;SDS011;5101;49.038;8.710;2024-01-30T13:27:06;7.32;;;4.65;;
10122;SDS011;5101;49.038;8.710;2024-01-30T13:29:32;6.53;;;4.65;;
10122;SDS011;5101;49.038;8.710;2024-01-30T13:31:57;9.38;;;5.00;;
10122;SDS011;5101;49.038;8.710;2024-01-30T13:34:23;8.40;;;4.80;;
10122;SDS011;5101;49.038;8.710;2024-01-30T13:36:49;10.32;;;6.10;;
10122;SDS011;5101;49.038;8.710;2024-01-30T13:39:15;7.78;;;5.53;;
10122;SDS011;5101;49.038;8.710;2024-01-30T13:41:44;8.15;;;5.13;;
10122;SDS011;5101;49.038;8.710;2024-01-30T13:44:09;7.57;;;5.25;;
10122;SDS011;5101;49.038;8.710;2024-01-30T13:46:35;5.55;;;4.95;;
10122;SDS011;5101;49.038;8.710;2024-01-30T13:49:01;7.07;;;5.72;;
10122;SDS011;5101;49.038;8.710;2024-01-30T13:51:27;6.35;;;4.70;;
10122;SDS011;5101;49.038;8.710;2024-01-30T13:53:53;6.38;;;4.68;;
10122;SDS011;5101;49.038;8.710;2024-01-30T13:56:19;8.00;;;5.18;;
10122;SDS011;5101;49.038;8.710;2024-01-30T13:58:45;7.30;;;5.38;;
10122;SDS011;5101;49.038;8.710;2024-01-30T14:01:12;7.43;;;5.72;;
10122;SDS011;5101;49.038;8.710;2024-01-30T14:03:38;9.63;;;5.00;;
10122;SDS011;5101;49.038;8.710;2024-01-30T14:06:03;7.70;;;5.30;;
10122;SDS011;5101;49.038;8.710;2024-01-30T14:08:29;10.18;;;4.75;;
10122;SDS011;5101;49.038;8.710;2024-01-30T14:10:55;6.97;;;5.15;;
10122;SDS011;5101;49.038;8.710;2024-01-30T14:13:21;9.02;;;5.03;;
10122;SDS011;5101;49.038;8.710;2024-01-30T14:15:47;5.75;;;5.03;;
10122;SDS011;5101;49.038;8.710;2024-01-30T14:18:13;9.23;;;5.78;;
10122;SDS011;5101;49.038;8.710;2024-01-30T14:20:39;7.70;;;5.40;;
10122;SDS011;5101;49.038;8.710;2024-01-30T14:23:04;7.13;;;4.93;;
10122;SDS011;5101;49.038;8.710;2024-01-30T14:25:30;7.43;;;5.65;;
10122;SDS011;5101;49.038;8.710;2024-01-30T14:27:55;7.65;;;5.28;;
10122;SDS011;5101;49.038;8.710;2024-01-30T14:30:21;6.05;;;5.13;;
10122;SDS011;5101;49.038;8.710;2024-01-30T14:32:46;11.93;;;8.75;;
10122;SDS011;5101;49.038;8.710;2024-01-30T14:35:12;8.15;;;5.82;;
10122;SDS011;5101;49.038;8.710;2024-01-30T14:37:38;8.68;;;5.85;;
10122;SDS011;5101;49.038;8.710;2024-01-30T14:40:04;8.20;;;5.38;;
10122;SDS011;5101;49.038;8.710;2024-01-30T14:42:32;10.40;;;5.40;;
10122;SDS011;5101;49.038;8.710;2024-01-30T14:44:58;7.88;;;5.53;;
10122;SDS011;5101;49.038;8.710;2024-01-30T14:47:24;6.07;;;5.47;;
10122;SDS011;5101;49.038;8.710;2024-01-30T14:49:50;7.35;;;5.88;;